sensor_id;sensor_type;location;lat;lon;timestamp;temperature;humidity
31783;DHT22;18351;47.560;9.708;2023-03-21T00:00:37;7.40;99.90
31783;DHT22;18351;47.560;9.708;2023-03-21T00:03:02;7.30;99.90
31783;DHT22;18351;47.560;9.708;2023-03-21T00:05:28;7.30;99.90
31783;DHT22;18351;47.560;9.708;2023-03-21T00:07:54;7.20;99.90
31783;DHT22;18351;47.560;9.708;2023-03-21T00:10:20;7.20;99.90
31783;DHT22;18351;47.560;9.708;2023-03-21T00:12:45;7.20;99.90
31783;DHT22;18351;47.560;9.708;2023-03-21T00:15:15;7.20;99.90
31783;DHT22;18351;47.560;9.708;2023-03-21T00:17:42;7.20;99.90
31783;DHT22;18351;47.560;9.708;2023-03-21T00:20:09;7.20;99.90
31783;DHT22;18351;47.560;9.708;2023-03-21T00:22:40;7.20;99.90
31783;DHT22;18351;47.560;9.708;2023-03-21T00:25:07;7.20;99.90
31783;DHT22;18351;47.560;9.708;2023-03-21T00:27:33;7.20;99.90
31783;DHT22;18351;47.560;9.708;2023-03-21T00:29:59;7.20;99.90
31783;DHT22;18351;47.560;9.708;2023-03-21T00:32:25;7.20;99.90
31783;DHT22;18351;47.560;9.708;2023-03-21T00:34:51;7.10;99.90
31783;DHT22;18351;47.560;9.708;2023-03-21T00:37:17;7.20;99.90
31783;DHT22;18351;47.560;9.708;2023-03-21T00:39:46;7.20;99.90
31783;DHT22;18351;47.560;9.708;2023-03-21T00:42:14;7.10;99.90
31783;DHT22;18351;47.560;9.708;2023-03-21T00:44:40;7.20;99.90
31783;DHT22;18351;47.560;9.708;2023-03-21T00:47:08;7.10;99.90
31783;DHT22;18351;47.560;9.708;2023-03-21T00:49:33;7.10;99.90
31783;DHT22;18351;47.560;9.708;2023-03-21T00:52:00;7.00;99.90
31783;DHT22;18351;47.560;9.708;2023-03-21T00:54:26;7.10;99.90
31783;DHT22;18351;47.560;9.708;2023-03-21T00:56:52;7.10;99.90
31783;DHT22;18351;47.560;9.708;2023-03-21T00:59:17;7.00;99.90
31783;DHT22;18351;47.560;9.708;2023-03-21T01:01:43;7.00;99.90
31783;DHT22;18351;47.560;9.708;2023-03-21T01:04:11;7.10;99.90
31783;DHT22;18351;47.560;9.708;2023-03-21T01:06:41;7.10;99.90
31783;DHT22;18351;47.560;9.708;2023-03-21T01:09:11;7.20;99.90
31783;DHT22;18351;47.560;9.708;2023-03-21T01:11:37;7.20;99.90
31783;DHT22;18351;47.560;9.708;2023-03-21T01:14:03;7.30;99.90
31783;DHT22;18351;47.560;9.708;2023-03-21T01:16:28;7.30;99.90
31783;DHT22;18351;47.560;9.708;2023-03-21T01:18:54;7.30;99.90
31783;DHT22;18351;47.560;9.708;2023-03-21T01:21:20;7.30;99.90
31783;DHT22;18351;47.560;9.708;2023-03-21T01:23:46;7.30;99.90
31783;DHT22;18351;47.560;9.708;2023-03-21T01:26:13;7.20;99.90
31783;DHT22;18351;47.560;9.708;2023-03-21T01:28:40;7.10;99.90
31783;DHT22;18351;47.560;9.708;2023-03-21T01:31:06;7.10;99.90
31783;DHT22;18351;47.560;9.708;2023-03-21T01:33:32;7.10;99.90
31783;DHT22;18351;47.560;9.708;2023-03-21T01:35:58;7.10;99.90
31783;DHT22;18351;47.560;9.708;2023-03-21T01:38:25;7.10;99.90
31783;DHT22;18351;47.560;9.708;2023-03-21T01:40:51;7.10;99.90
31783;DHT22;18351;47.560;9.708;2023-03-21T01:49:00;7.10;99.90
31783;DHT22;18351;47.560;9.708;2023-03-21T01:51:28;7.20;99.90
31783;DHT22;18351;47.560;9.708;2023-03-21T01:53:55;7.20;99.90
31783;DHT22;18351;47.560;9.708;2023-03-21T01:56:33;7.20;99.90
31783;DHT22;18351;47.560;9.708;2023-03-21T01:59:37;7.30;99.90
31783;DHT22;18351;47.560;9.708;2023-03-21T02:02:06;7.40;99.90
31783;DHT22;18351;47.560;9.708;2023-03-21T02:04:36;7.40;99.90
31783;DHT22;18351;47.560;9.708;2023-03-21T02:07:14;7.40;99.90
31783;DHT22;18351;47.560;9.708;2023-03-21T02:09:46;7.40;99.90
31783;DHT22;18351;47.560;9.708;2023-03-21T02:12:13;7.50;99.90
31783;DHT22;18351;47.560;9.708;2023-03-21T02:14:40;7.60;99.90
31783;DHT22;18351;47.560;9.708;2023-03-21T02:17:10;7.50;99.90
31783;DHT22;18351;47.560;9.708;2023-03-21T02:25:45;7.50;99.90
31783;DHT22;18351;47.560;9.708;2023-03-21T02:28:42;7.50;99.90
31783;DHT22;18351;47.560;9.708;2023-03-21T02:36:32;7.40;99.90
31783;DHT22;18351;47.560;9.708;2023-03-21T02:39:10;7.40;99.90
31783;DHT22;18351;47.560;9.708;2023-03-21T02:46:56;7.50;99.90
31783;DHT22;18351;47.560;9.708;2023-03-21T02:49:28;7.50;99.90
31783;DHT22;18351;47.560;9.708;2023-03-21T02:51:57;7.50;99.90
31783;DHT22;18351;47.560;9.708;2023-03-21T02:54:23;7.60;99.90
31783;DHT22;18351;47.560;9.708;2023-03-21T02:56:51;7.60;99.90
31783;DHT22;18351;47.560;9.708;2023-03-21T02:59:19;7.60;99.90
31783;DHT22;18351;47.560;9.708;2023-03-21T03:01:45;7.60;99.90
31783;DHT22;18351;47.560;9.708;2023-03-21T03:04:22;7.70;99.90
31783;DHT22;18351;47.560;9.708;2023-03-21T03:12:48;7.60;99.90
31783;DHT22;18351;47.560;9.708;2023-03-21T03:18:34;7.60;99.90
31783;DHT22;18351;47.560;9.708;2023-03-21T03:24:15;7.60;99.90
31783;DHT22;18351;47.560;9.708;2023-03-21T03:29:15;7.60;99.90
31783;DHT22;18351;47.560;9.708;2023-03-21T03:31:49;7.60;99.90
31783;DHT22;18351;47.560;9.708;2023-03-21T03:34:17;7.60;99.90
31783;DHT22;18351;47.560;9.708;2023-03-21T03:36:47;7.60;99.90
31783;DHT22;18351;47.560;9.708;2023-03-21T03:39:16;7.60;99.90
31783;DHT22;18351;47.560;9.708;2023-03-21T03:44:12;7.70;99.90
31783;DHT22;18351;47.560;9.708;2023-03-21T03:46:48;7.70;99.90
31783;DHT22;18351;47.560;9.708;2023-03-21T03:49:24;7.70;99.90
31783;DHT22;18351;47.560;9.708;2023-03-21T03:51:58;7.70;99.90
31783;DHT22;18351;47.560;9.708;2023-03-21T03:54:33;7.70;99.90
31783;DHT22;18351;47.560;9.708;2023-03-21T03:56:59;7.70;99.90
31783;DHT22;18351;47.560;9.708;2023-03-21T03:59:26;7.70;99.90
31783;DHT22;18351;47.560;9.708;2023-03-21T04:01:51;7.60;99.90
31783;DHT22;18351;47.560;9.708;2023-03-21T04:04:17;7.60;99.90
31783;DHT22;18351;47.560;9.708;2023-03-21T04:06:43;7.60;99.90
31783;DHT22;18351;47.560;9.708;2023-03-21T04:09:17;7.60;99.90
31783;DHT22;18351;47.560;9.708;2023-03-21T04:11:43;7.50;99.90
31783;DHT22;18351;47.560;9.708;2023-03-21T04:14:08;7.50;99.90
31783;DHT22;18351;47.560;9.708;2023-03-21T04:16:34;7.60;99.90
31783;DHT22;18351;47.560;9.708;2023-03-21T04:18:59;7.60;99.90
31783;DHT22;18351;47.560;9.708;2023-03-21T04:21:26;7.60;99.90
31783;DHT22;18351;47.560;9.708;2023-03-21T04:23:53;7.60;99.90
31783;DHT22;18351;47.560;9.708;2023-03-21T04:26:22;7.50;99.90
31783;DHT22;18351;47.560;9.708;2023-03-21T04:28:49;7.40;99.90
31783;DHT22;18351;47.560;9.708;2023-03-21T04:31:16;7.40;99.90
31783;DHT22;18351;47.560;9.708;2023-03-21T04:33:42;7.40;99.90
31783;DHT22;18351;47.560;9.708;2023-03-21T04:36:09;7.40;99.90
31783;DHT22;18351;47.560;9.708;2023-03-21T04:38:42;7.50;99.90
31783;DHT22;18351;47.560;9.708;2023-03-21T04:41:12;7.40;99.90
31783;DHT22;18351;47.560;9.708;2023-03-21T04:43:38;7.50;99.90
31783;DHT22;18351;47.560;9.708;2023-03-21T04:46:03;7.50;99.90
31783;DHT22;18351;47.560;9.708;2023-03-21T04:48:30;7.50;99.90
31783;DHT22;18351;47.560;9.708;2023-03-21T04:50:56;7.50;99.90
31783;DHT22;18351;47.560;9.708;2023-03-21T04:53:21;7.50;99.90
31783;DHT22;18351;47.560;9.708;2023-03-21T04:55:47;7.50;99.90
31783;DHT22;18351;47.560;9.708;2023-03-21T04:58:12;7.40;99.90
31783;DHT22;18351;47.560;9.708;2023-03-21T05:00:38;7.30;99.90
31783;DHT22;18351;47.560;9.708;2023-03-21T05:03:05;7.40;99.90
31783;DHT22;18351;47.560;9.708;2023-03-21T05:05:34;7.40;99.90
31783;DHT22;18351;47.560;9.708;2023-03-21T05:08:00;7.40;99.90
31783;DHT22;18351;47.560;9.708;2023-03-21T05:10:26;7.40;99.90
31783;DHT22;18351;47.560;9.708;2023-03-21T05:12:51;7.40;99.90
31783;DHT22;18351;47.560;9.708;2023-03-21T05:15:17;7.40;99.90
31783;DHT22;18351;47.560;9.708;2023-03-21T05:17:42;7.40;99.90
31783;DHT22;18351;47.560;9.708;2023-03-21T05:20:09;7.40;99.90
31783;DHT22;18351;47.560;9.708;2023-03-21T05:22:36;7.40;99.90
31783;DHT22;18351;47.560;9.708;2023-03-21T05:25:09;7.40;99.90
31783;DHT22;18351;47.560;9.708;2023-03-21T05:27:34;7.40;99.90
31783;DHT22;18351;47.560;9.708;2023-03-21T05:30:08;7.40;99.90
31783;DHT22;18351;47.560;9.708;2023-03-21T05:32:35;7.40;99.90
31783;DHT22;18351;47.560;9.708;2023-03-21T05:35:01;7.40;99.90
31783;DHT22;18351;47.560;9.708;2023-03-21T05:37:27;7.30;99.90
31783;DHT22;18351;47.560;9.708;2023-03-21T05:39:53;7.30;99.90
31783;DHT22;18351;47.560;9.708;2023-03-21T05:42:19;7.30;99.90
31783;DHT22;18351;47.560;9.708;2023-03-21T05:44:44;7.30;99.90
31783;DHT22;18351;47.560;9.708;2023-03-21T05:47:12;7.30;99.90
31783;DHT22;18351;47.560;9.708;2023-03-21T05:49:38;7.30;99.90
31783;DHT22;18351;47.560;9.708;2023-03-21T05:52:04;7.30;99.90
31783;DHT22;18351;47.560;9.708;2023-03-21T05:54:30;7.30;99.90
31783;DHT22;18351;47.560;9.708;2023-03-21T05:56:55;7.30;99.90
31783;DHT22;18351;47.560;9.708;2023-03-21T05:59:21;7.40;99.90
31783;DHT22;18351;47.560;9.708;2023-03-21T06:01:47;7.40;99.90
31783;DHT22;18351;47.560;9.708;2023-03-21T06:04:13;7.40;99.90
31783;DHT22;18351;47.560;9.708;2023-03-21T06:06:38;7.40;99.90
31783;DHT22;18351;47.560;9.708;2023-03-21T06:09:04;7.50;99.90
31783;DHT22;18351;47.560;9.708;2023-03-21T06:11:35;7.50;99.90
31783;DHT22;18351;47.560;9.708;2023-03-21T06:14:02;7.60;99.90
31783;DHT22;18351;47.560;9.708;2023-03-21T06:16:27;7.70;99.90
31783;DHT22;18351;47.560;9.708;2023-03-21T06:18:54;7.80;99.90
31783;DHT22;18351;47.560;9.708;2023-03-21T06:21:20;7.90;99.90
31783;DHT22;18351;47.560;9.708;2023-03-21T06:23:46;7.90;99.90
31783;DHT22;18351;47.560;9.708;2023-03-21T06:26:12;7.90;99.90
31783;DHT22;18351;47.560;9.708;2023-03-21T06:28:38;8.00;99.90
31783;DHT22;18351;47.560;9.708;2023-03-21T06:31:04;8.10;99.90
31783;DHT22;18351;47.560;9.708;2023-03-21T06:33:30;8.20;99.90
31783;DHT22;18351;47.560;9.708;2023-03-21T06:35:57;8.30;99.90
31783;DHT22;18351;47.560;9.708;2023-03-21T06:38:24;8.40;99.90
31783;DHT22;18351;47.560;9.708;2023-03-21T06:40:50;8.50;99.90
31783;DHT22;18351;47.560;9.708;2023-03-21T06:43:16;8.50;99.90
31783;DHT22;18351;47.560;9.708;2023-03-21T06:45:42;8.60;99.90
31783;DHT22;18351;47.560;9.708;2023-03-21T06:48:08;8.70;99.90
31783;DHT22;18351;47.560;9.708;2023-03-21T06:50:34;8.80;99.90
31783;DHT22;18351;47.560;9.708;2023-03-21T06:53:00;8.90;99.90
31783;DHT22;18351;47.560;9.708;2023-03-21T06:55:26;9.00;99.90
31783;DHT22;18351;47.560;9.708;2023-03-21T06:57:56;9.10;99.90
31783;DHT22;18351;47.560;9.708;2023-03-21T07:00:23;9.20;99.90
31783;DHT22;18351;47.560;9.708;2023-03-21T07:02:48;9.30;99.90
31783;DHT22;18351;47.560;9.708;2023-03-21T07:05:15;9.60;99.90
31783;DHT22;18351;47.560;9.708;2023-03-21T07:07:41;9.70;99.90
31783;DHT22;18351;47.560;9.708;2023-03-21T07:10:07;9.90;99.90
31783;DHT22;18351;47.560;9.708;2023-03-21T07:12:33;10.10;99.90
31783;DHT22;18351;47.560;9.708;2023-03-21T07:15:01;10.30;99.90
31783;DHT22;18351;47.560;9.708;2023-03-21T07:17:27;10.50;99.90
31783;DHT22;18351;47.560;9.708;2023-03-21T07:19:53;10.60;99.90
31783;DHT22;18351;47.560;9.708;2023-03-21T07:22:18;10.80;99.90
31783;DHT22;18351;47.560;9.708;2023-03-21T07:24:44;10.90;99.90
31783;DHT22;18351;47.560;9.708;2023-03-21T07:27:13;11.00;99.90
31783;DHT22;18351;47.560;9.708;2023-03-21T07:29:39;11.10;99.90
31783;DHT22;18351;47.560;9.708;2023-03-21T07:32:05;11.20;99.90
31783;DHT22;18351;47.560;9.708;2023-03-21T07:34:30;11.30;99.90
31783;DHT22;18351;47.560;9.708;2023-03-21T07:36:58;11.30;99.90
31783;DHT22;18351;47.560;9.708;2023-03-21T07:39:24;11.30;99.90
31783;DHT22;18351;47.560;9.708;2023-03-21T07:41:50;11.30;99.90
31783;DHT22;18351;47.560;9.708;2023-03-21T07:44:15;11.40;99.90
31783;DHT22;18351;47.560;9.708;2023-03-21T07:46:41;11.40;99.90
31783;DHT22;18351;47.560;9.708;2023-03-21T07:49:07;11.50;99.90
31783;DHT22;18351;47.560;9.708;2023-03-21T07:51:33;11.50;99.90
31783;DHT22;18351;47.560;9.708;2023-03-21T07:54:00;11.50;99.90
31783;DHT22;18351;47.560;9.708;2023-03-21T07:56:26;11.50;99.90
31783;DHT22;18351;47.560;9.708;2023-03-21T07:58:52;11.60;99.90
31783;DHT22;18351;47.560;9.708;2023-03-21T08:01:18;11.60;99.90
31783;DHT22;18351;47.560;9.708;2023-03-21T08:03:43;11.60;99.90
31783;DHT22;18351;47.560;9.708;2023-03-21T08:06:09;11.60;99.90
31783;DHT22;18351;47.560;9.708;2023-03-21T08:08:35;11.50;99.90
31783;DHT22;18351;47.560;9.708;2023-03-21T08:11:03;11.40;99.90
31783;DHT22;18351;47.560;9.708;2023-03-21T08:13:28;11.30;99.90
31783;DHT22;18351;47.560;9.708;2023-03-21T08:15:54;11.20;99.90
31783;DHT22;18351;47.560;9.708;2023-03-21T08:18:20;11.20;99.90
31783;DHT22;18351;47.560;9.708;2023-03-21T08:20:51;11.10;99.90
31783;DHT22;18351;47.560;9.708;2023-03-21T08:23:17;11.00;99.90
31783;DHT22;18351;47.560;9.708;2023-03-21T08:25:43;11.00;99.90
31783;DHT22;18351;47.560;9.708;2023-03-21T08:28:08;11.00;99.90
31783;DHT22;18351;47.560;9.708;2023-03-21T08:30:34;10.90;99.90
31783;DHT22;18351;47.560;9.708;2023-03-21T08:33:00;10.90;99.90
31783;DHT22;18351;47.560;9.708;2023-03-21T08:35:26;11.00;99.90
31783;DHT22;18351;47.560;9.708;2023-03-21T08:37:52;11.00;99.90
31783;DHT22;18351;47.560;9.708;2023-03-21T08:40:18;11.10;99.90
31783;DHT22;18351;47.560;9.708;2023-03-21T08:42:45;11.10;99.90
31783;DHT22;18351;47.560;9.708;2023-03-21T08:45:12;11.20;99.90
31783;DHT22;18351;47.560;9.708;2023-03-21T08:47:38;11.20;99.90
31783;DHT22;18351;47.560;9.708;2023-03-21T08:50:05;11.20;99.90
31783;DHT22;18351;47.560;9.708;2023-03-21T08:52:32;11.30;99.90
31783;DHT22;18351;47.560;9.708;2023-03-21T08:54:57;11.50;99.90
31783;DHT22;18351;47.560;9.708;2023-03-21T08:57:23;11.60;99.90
31783;DHT22;18351;47.560;9.708;2023-03-21T08:59:49;11.70;99.90
31783;DHT22;18351;47.560;9.708;2023-03-21T09:02:15;11.90;99.90
31783;DHT22;18351;47.560;9.708;2023-03-21T09:04:41;12.00;99.90
31783;DHT22;18351;47.560;9.708;2023-03-21T09:07:08;12.20;99.90
31783;DHT22;18351;47.560;9.708;2023-03-21T09:09:37;12.30;99.90
31783;DHT22;18351;47.560;9.708;2023-03-21T09:12:03;12.50;99.90
31783;DHT22;18351;47.560;9.708;2023-03-21T09:14:29;12.70;99.90
31783;DHT22;18351;47.560;9.708;2023-03-21T09:16:55;12.90;99.90
31783;DHT22;18351;47.560;9.708;2023-03-21T09:19:21;12.90;99.90
31783;DHT22;18351;47.560;9.708;2023-03-21T09:21:46;12.90;99.90
31783;DHT22;18351;47.560;9.708;2023-03-21T09:24:12;12.90;99.90
31783;DHT22;18351;47.560;9.708;2023-03-21T09:26:40;13.00;99.90
31783;DHT22;18351;47.560;9.708;2023-03-21T09:29:05;13.00;99.90
31783;DHT22;18351;47.560;9.708;2023-03-21T09:31:31;13.00;99.90
31783;DHT22;18351;47.560;9.708;2023-03-21T09:33:57;13.10;99.90
31783;DHT22;18351;47.560;9.708;2023-03-21T09:36:24;13.20;99.90
31783;DHT22;18351;47.560;9.708;2023-03-21T09:38:52;13.20;99.90
31783;DHT22;18351;47.560;9.708;2023-03-21T09:47:29;13.40;99.90
31783;DHT22;18351;47.560;9.708;2023-03-21T09:50:17;13.60;99.90
31783;DHT22;18351;47.560;9.708;2023-03-21T09:55:31;14.00;99.90
31783;DHT22;18351;47.560;9.708;2023-03-21T10:00:37;14.50;99.00
31783;DHT22;18351;47.560;9.708;2023-03-21T10:03:09;14.50;99.70
31783;DHT22;18351;47.560;9.708;2023-03-21T10:05:41;14.60;98.90
31783;DHT22;18351;47.560;9.708;2023-03-21T10:08:15;14.80;97.50
31783;DHT22;18351;47.560;9.708;2023-03-21T10:10:49;15.00;98.00
31783;DHT22;18351;47.560;9.708;2023-03-21T10:13:27;15.20;96.00
31783;DHT22;18351;47.560;9.708;2023-03-21T10:15:56;15.10;94.00
31783;DHT22;18351;47.560;9.708;2023-03-21T10:18:24;15.30;94.60
31783;DHT22;18351;47.560;9.708;2023-03-21T10:20:51;15.50;93.10
31783;DHT22;18351;47.560;9.708;2023-03-21T10:23:20;15.50;92.80
31783;DHT22;18351;47.560;9.708;2023-03-21T10:25:55;15.50;92.30
31783;DHT22;18351;47.560;9.708;2023-03-21T10:28:33;15.60;91.60
31783;DHT22;18351;47.560;9.708;2023-03-21T10:31:02;15.50;91.30
31783;DHT22;18351;47.560;9.708;2023-03-21T10:33:37;15.50;91.60
31783;DHT22;18351;47.560;9.708;2023-03-21T10:38:33;15.80;91.00
31783;DHT22;18351;47.560;9.708;2023-03-21T10:41:00;16.10;91.20
31783;DHT22;18351;47.560;9.708;2023-03-21T10:45:51;16.70;86.80
31783;DHT22;18351;47.560;9.708;2023-03-21T10:48:17;16.90;83.20
31783;DHT22;18351;47.560;9.708;2023-03-21T10:50:46;17.00;84.80
31783;DHT22;18351;47.560;9.708;2023-03-21T10:53:17;17.10;81.60
31783;DHT22;18351;47.560;9.708;2023-03-21T10:56:31;17.00;83.20
31783;DHT22;18351;47.560;9.708;2023-03-21T10:58:35;17.00;81.10
31783;DHT22;18351;47.560;9.708;2023-03-21T11:01:06;17.00;81.50
31783;DHT22;18351;47.560;9.708;2023-03-21T11:03:36;17.10;80.90
31783;DHT22;18351;47.560;9.708;2023-03-21T11:06:08;17.10;79.30
31783;DHT22;18351;47.560;9.708;2023-03-21T11:08:38;16.90;81.10
31783;DHT22;18351;47.560;9.708;2023-03-21T11:11:08;16.80;79.90
31783;DHT22;18351;47.560;9.708;2023-03-21T11:13:40;16.90;79.00
31783;DHT22;18351;47.560;9.708;2023-03-21T11:18:41;16.80;80.70
31783;DHT22;18351;47.560;9.708;2023-03-21T11:21:09;16.80;79.50
31783;DHT22;18351;47.560;9.708;2023-03-21T11:23:41;16.80;79.40
31783;DHT22;18351;47.560;9.708;2023-03-21T11:26:28;17.00;79.90
31783;DHT22;18351;47.560;9.708;2023-03-21T11:28:55;17.00;78.50
31783;DHT22;18351;47.560;9.708;2023-03-21T11:31:21;17.20;78.70
31783;DHT22;18351;47.560;9.708;2023-03-21T11:33:55;17.20;77.10
31783;DHT22;18351;47.560;9.708;2023-03-21T11:38:57;17.20;78.80
31783;DHT22;18351;47.560;9.708;2023-03-21T11:41:29;17.00;78.10
31783;DHT22;18351;47.560;9.708;2023-03-21T11:43:55;17.20;77.50
31783;DHT22;18351;47.560;9.708;2023-03-21T11:46:28;17.10;77.10
31783;DHT22;18351;47.560;9.708;2023-03-21T11:48:55;16.80;78.10
31783;DHT22;18351;47.560;9.708;2023-03-21T11:51:40;17.10;78.20
31783;DHT22;18351;47.560;9.708;2023-03-21T11:54:21;16.90;77.10
31783;DHT22;18351;47.560;9.708;2023-03-21T11:56:53;17.00;76.70
31783;DHT22;18351;47.560;9.708;2023-03-21T12:02:41;17.30;77.10
31783;DHT22;18351;47.560;9.708;2023-03-21T12:05:31;17.20;77.20
31783;DHT22;18351;47.560;9.708;2023-03-21T12:10:44;17.20;77.40
31783;DHT22;18351;47.560;9.708;2023-03-21T12:18:58;17.30;76.60
31783;DHT22;18351;47.560;9.708;2023-03-21T12:24:13;17.10;77.30
31783;DHT22;18351;47.560;9.708;2023-03-21T12:37:56;17.20;75.40
31783;DHT22;18351;47.560;9.708;2023-03-21T12:43:32;17.30;75.80
31783;DHT22;18351;47.560;9.708;2023-03-21T12:46:03;17.30;75.40
31783;DHT22;18351;47.560;9.708;2023-03-21T12:51:04;17.60;75.70
31783;DHT22;18351;47.560;9.708;2023-03-21T12:53:52;17.70;73.50
31783;DHT22;18351;47.560;9.708;2023-03-21T12:56:32;17.80;72.60
31783;DHT22;18351;47.560;9.708;2023-03-21T12:59:54;17.70;72.20
31783;DHT22;18351;47.560;9.708;2023-03-21T13:01:57;17.60;72.40
31783;DHT22;18351;47.560;9.708;2023-03-21T13:07:17;17.70;73.00
31783;DHT22;18351;47.560;9.708;2023-03-21T13:09:44;17.80;73.20
31783;DHT22;18351;47.560;9.708;2023-03-21T13:12:39;17.90;72.80
31783;DHT22;18351;47.560;9.708;2023-03-21T13:20:46;17.70;71.80
31783;DHT22;18351;47.560;9.708;2023-03-21T13:23:13;17.60;70.50
31783;DHT22;18351;47.560;9.708;2023-03-21T13:25:46;17.60;71.00
31783;DHT22;18351;47.560;9.708;2023-03-21T13:28:26;17.50;70.00
31783;DHT22;18351;47.560;9.708;2023-03-21T13:30:52;17.50;71.50
31783;DHT22;18351;47.560;9.708;2023-03-21T13:33:29;17.50;70.00
31783;DHT22;18351;47.560;9.708;2023-03-21T13:35:59;17.60;71.20
31783;DHT22;18351;47.560;9.708;2023-03-21T13:38:31;17.80;70.90
31783;DHT22;18351;47.560;9.708;2023-03-21T13:41:00;17.90;70.80
31783;DHT22;18351;47.560;9.708;2023-03-21T13:51:46;17.80;68.80
31783;DHT22;18351;47.560;9.708;2023-03-21T13:54:16;17.80;68.70
31783;DHT22;18351;47.560;9.708;2023-03-21T14:02:32;17.80;70.10
31783;DHT22;18351;47.560;9.708;2023-03-21T14:05:04;18.00;70.00
31783;DHT22;18351;47.560;9.708;2023-03-21T14:07:39;18.20;69.60
31783;DHT22;18351;47.560;9.708;2023-03-21T14:10:12;18.20;69.20
31783;DHT22;18351;47.560;9.708;2023-03-21T14:12:42;18.30;68.60
31783;DHT22;18351;47.560;9.708;2023-03-21T14:17:57;18.20;67.20
31783;DHT22;18351;47.560;9.708;2023-03-21T14:20:31;18.20;66.90
31783;DHT22;18351;47.560;9.708;2023-03-21T14:22:58;18.30;67.10
31783;DHT22;18351;47.560;9.708;2023-03-21T14:25:30;18.40;66.90
31783;DHT22;18351;47.560;9.708;2023-03-21T14:27:59;18.40;67.20
31783;DHT22;18351;47.560;9.708;2023-03-21T14:30:36;18.30;66.10
31783;DHT22;18351;47.560;9.708;2023-03-21T14:35:50;18.00;66.70
31783;DHT22;18351;47.560;9.708;2023-03-21T14:38:22;17.70;68.20
31783;DHT22;18351;47.560;9.708;2023-03-21T14:40:51;17.60;70.00
31783;DHT22;18351;47.560;9.708;2023-03-21T14:43:21;17.50;68.40
31783;DHT22;18351;47.560;9.708;2023-03-21T14:45:50;17.60;69.40
31783;DHT22;18351;47.560;9.708;2023-03-21T14:48:20;17.60;68.60
31783;DHT22;18351;47.560;9.708;2023-03-21T14:50:51;17.50;69.60
31783;DHT22;18351;47.560;9.708;2023-03-21T14:53:27;17.60;71.30
31783;DHT22;18351;47.560;9.708;2023-03-21T14:56:01;17.70;70.60
31783;DHT22;18351;47.560;9.708;2023-03-21T14:58:27;17.60;71.50
31783;DHT22;18351;47.560;9.708;2023-03-21T15:00:57;17.70;71.40
31783;DHT22;18351;47.560;9.708;2023-03-21T15:03:25;17.70;72.00
31783;DHT22;18351;47.560;9.708;2023-03-21T15:05:53;17.80;69.80
31783;DHT22;18351;47.560;9.708;2023-03-21T15:08:25;17.80;70.10
31783;DHT22;18351;47.560;9.708;2023-03-21T15:10:56;17.70;70.60
31783;DHT22;18351;47.560;9.708;2023-03-21T15:13:25;17.70;70.80
31783;DHT22;18351;47.560;9.708;2023-03-21T15:15:51;17.60;71.30
31783;DHT22;18351;47.560;9.708;2023-03-21T15:18:30;17.60;69.70
31783;DHT22;18351;47.560;9.708;2023-03-21T15:21:01;17.60;70.20
31783;DHT22;18351;47.560;9.708;2023-03-21T15:23:37;17.50;70.80
31783;DHT22;18351;47.560;9.708;2023-03-21T15:26:04;17.50;71.60
31783;DHT22;18351;47.560;9.708;2023-03-21T15:28:32;17.50;72.10
31783;DHT22;18351;47.560;9.708;2023-03-21T15:30:58;17.40;71.50
31783;DHT22;18351;47.560;9.708;2023-03-21T15:33:24;17.40;71.60
31783;DHT22;18351;47.560;9.708;2023-03-21T15:35:53;17.20;71.50
31783;DHT22;18351;47.560;9.708;2023-03-21T15:38:32;17.20;72.20
31783;DHT22;18351;47.560;9.708;2023-03-21T15:44:05;17.10;72.50
31783;DHT22;18351;47.560;9.708;2023-03-21T15:46:50;17.00;73.30
31783;DHT22;18351;47.560;9.708;2023-03-21T15:49:17;17.00;72.50
31783;DHT22;18351;47.560;9.708;2023-03-21T15:51:57;16.90;72.60
31783;DHT22;18351;47.560;9.708;2023-03-21T15:54:34;16.80;71.90
31783;DHT22;18351;47.560;9.708;2023-03-21T15:57:04;16.80;72.60
31783;DHT22;18351;47.560;9.708;2023-03-21T15:59:40;16.70;73.40
31783;DHT22;18351;47.560;9.708;2023-03-21T16:02:18;16.70;74.60
31783;DHT22;18351;47.560;9.708;2023-03-21T16:05:26;16.60;74.90
31783;DHT22;18351;47.560;9.708;2023-03-21T16:07:53;16.60;74.20
31783;DHT22;18351;47.560;9.708;2023-03-21T16:10:36;16.60;74.80
31783;DHT22;18351;47.560;9.708;2023-03-21T16:13:02;16.60;75.30
31783;DHT22;18351;47.560;9.708;2023-03-21T16:15:28;16.60;75.80
31783;DHT22;18351;47.560;9.708;2023-03-21T16:17:58;16.50;75.70
31783;DHT22;18351;47.560;9.708;2023-03-21T16:20:27;16.40;75.00
31783;DHT22;18351;47.560;9.708;2023-03-21T16:22:53;16.30;76.30
31783;DHT22;18351;47.560;9.708;2023-03-21T16:25:19;16.30;76.40
31783;DHT22;18351;47.560;9.708;2023-03-21T16:27:46;16.20;77.00
31783;DHT22;18351;47.560;9.708;2023-03-21T16:30:14;16.10;77.60
31783;DHT22;18351;47.560;9.708;2023-03-21T16:32:40;16.10;78.10
31783;DHT22;18351;47.560;9.708;2023-03-21T16:35:05;16.00;79.40
31783;DHT22;18351;47.560;9.708;2023-03-21T16:37:31;15.90;78.30
31783;DHT22;18351;47.560;9.708;2023-03-21T16:39:57;15.80;78.70
31783;DHT22;18351;47.560;9.708;2023-03-21T16:42:22;15.70;79.10
31783;DHT22;18351;47.560;9.708;2023-03-21T16:44:48;15.60;79.50
31783;DHT22;18351;47.560;9.708;2023-03-21T16:47:16;15.50;81.80
31783;DHT22;18351;47.560;9.708;2023-03-21T16:49:42;15.50;81.00
31783;DHT22;18351;47.560;9.708;2023-03-21T16:52:09;15.40;81.90
31783;DHT22;18351;47.560;9.708;2023-03-21T16:54:36;15.30;82.70
31783;DHT22;18351;47.560;9.708;2023-03-21T16:57:03;15.20;83.40
31783;DHT22;18351;47.560;9.708;2023-03-21T16:59:32;15.00;83.70
31783;DHT22;18351;47.560;9.708;2023-03-21T17:01:58;14.90;83.60
31783;DHT22;18351;47.560;9.708;2023-03-21T17:04:23;14.80;82.90
31783;DHT22;18351;47.560;9.708;2023-03-21T17:06:51;14.70;83.60
31783;DHT22;18351;47.560;9.708;2023-03-21T17:09:22;14.60;84.80
31783;DHT22;18351;47.560;9.708;2023-03-21T17:11:48;14.50;86.20
31783;DHT22;18351;47.560;9.708;2023-03-21T17:14:14;14.40;88.20
31783;DHT22;18351;47.560;9.708;2023-03-21T17:16:42;14.30;89.90
31783;DHT22;18351;47.560;9.708;2023-03-21T17:19:13;14.20;90.40
31783;DHT22;18351;47.560;9.708;2023-03-21T17:21:39;14.10;91.00
31783;DHT22;18351;47.560;9.708;2023-03-21T17:24:04;14.10;91.50
31783;DHT22;18351;47.560;9.708;2023-03-21T17:26:30;14.00;92.00
31783;DHT22;18351;47.560;9.708;2023-03-21T17:28:56;13.90;93.70
31783;DHT22;18351;47.560;9.708;2023-03-21T17:31:23;13.80;96.70
31783;DHT22;18351;47.560;9.708;2023-03-21T17:33:49;13.70;98.20
31783;DHT22;18351;47.560;9.708;2023-03-21T17:38:43;13.50;99.90
31783;DHT22;18351;47.560;9.708;2023-03-21T17:41:15;13.40;99.90
31783;DHT22;18351;47.560;9.708;2023-03-21T17:43:41;13.40;99.90
31783;DHT22;18351;47.560;9.708;2023-03-21T17:46:13;13.30;99.90
31783;DHT22;18351;47.560;9.708;2023-03-21T17:48:39;13.10;99.90
31783;DHT22;18351;47.560;9.708;2023-03-21T17:51:05;12.90;99.90
31783;DHT22;18351;47.560;9.708;2023-03-21T17:53:31;12.80;99.90